createdAt,value
2022-10-15T00:01:58.261Z,66.00
2022-10-15T00:04:28.371Z,66.10
2022-10-15T00:06:58.559Z,66.20
2022-10-15T00:09:28.909Z,66.30
2022-10-15T00:11:59.075Z,66.40
2022-10-15T00:14:29.242Z,66.60
2022-10-15T00:16:59.442Z,66.70
2022-10-15T00:19:29.676Z,67.00
2022-10-15T00:24:29.767Z,67.30
2022-10-15T00:26:59.941Z,67.30
2022-10-15T00:29:30.112Z,67.20
2022-10-15T00:32:00.236Z,67.10
2022-10-15T00:34:30.369Z,67.20
2022-10-15T00:37:00.497Z,67.20
2022-10-15T00:39:30.709Z,67.30
2022-10-15T00:42:00.895Z,67.10
2022-10-15T00:44:34.143Z,66.90
2022-10-15T00:47:16.327Z,66.80
2022-10-15T00:49:56.809Z,66.50
2022-10-15T00:52:32.045Z,65.60
2022-10-15T00:55:44.778Z,65.50
2022-10-15T00:58:23.741Z,65.20
2022-10-15T01:00:54.001Z,65.50
2022-10-15T01:03:24.625Z,66.70
2022-10-15T01:05:56.992Z,66.30
2022-10-15T01:08:27.483Z,66.40
2022-10-15T01:11:03.751Z,66.40
2022-10-15T01:13:57.301Z,66.20
2022-10-15T01:16:34.434Z,65.90
2022-10-15T01:19:27.235Z,65.90
2022-10-15T01:22:29.209Z,65.60
2022-10-15T01:25:30.538Z,65.60
2022-10-15T01:28:21.878Z,65.40
2022-10-15T01:31:12.283Z,65.20
2022-10-15T01:34:09.650Z,65.10
2022-10-15T01:37:03.700Z,64.80
2022-10-15T01:39:39.996Z,64.80
2022-10-15T01:42:29.892Z,64.60
2022-10-15T01:45:10.871Z,64.30
2022-10-15T01:48:02.479Z,64.20
2022-10-15T01:50:35.386Z,64.00
2022-10-15T01:53:08.572Z,64.10
2022-10-15T01:55:40.663Z,64.10
2022-10-15T01:58:13.840Z,64.00
2022-10-15T02:00:46.175Z,63.90
2022-10-15T02:03:16.421Z,63.90
2022-10-15T02:06:04.816Z,64.20
2022-10-15T02:08:52.988Z,64.30
2022-10-15T02:11:23.254Z,64.40
2022-10-15T02:14:17.525Z,64.70
2022-10-15T02:16:58.600Z,64.60
2022-10-15T02:19:53.510Z,64.70
2022-10-15T02:22:42.354Z,64.50
2022-10-15T02:25:25.157Z,64.50
2022-10-15T02:27:58.481Z,64.20
2022-10-15T02:30:29.965Z,64.40
2022-10-15T02:33:01.911Z,64.40
2022-10-15T02:35:32.453Z,64.30
2022-10-15T02:38:05.654Z,64.30
2022-10-15T02:40:38.214Z,64.20
2022-10-15T02:43:13.575Z,64.10
2022-10-15T02:45:44.333Z,64.10
2022-10-15T02:48:14.560Z,64.10
2022-10-15T02:50:44.816Z,64.10
2022-10-15T02:53:17.095Z,63.90
2022-10-15T02:55:48.593Z,63.80
2022-10-15T02:58:18.798Z,63.80
2022-10-15T03:00:48.898Z,63.90
2022-10-15T03:03:19.265Z,63.80
2022-10-15T03:05:49.712Z,64.00
2022-10-15T03:08:19.914Z,63.70
2022-10-15T03:10:50.216Z,63.80
2022-10-15T03:13:20.357Z,63.60
2022-10-15T03:15:50.543Z,63.60
2022-10-15T03:18:20.697Z,63.60
2022-10-15T03:20:58.308Z,63.60
2022-10-15T03:23:29.541Z,63.50
2022-10-15T03:25:59.760Z,63.50
2022-10-15T03:28:29.907Z,63.60
2022-10-15T03:31:00.078Z,63.50
2022-10-15T03:33:30.402Z,63.50
2022-10-15T03:36:00.585Z,63.50
2022-10-15T03:38:30.763Z,63.50
2022-10-15T03:41:01.016Z,63.40
2022-10-15T03:43:31.360Z,63.40
2022-10-15T03:46:05.535Z,63.40
2022-10-15T03:48:35.633Z,63.30
2022-10-15T03:51:05.812Z,63.40
2022-10-15T03:53:35.983Z,63.40
2022-10-15T03:56:07.480Z,63.40
2022-10-15T03:58:37.809Z,63.40
2022-10-15T04:01:16.957Z,63.40
2022-10-15T04:03:47.606Z,63.40
2022-10-15T04:06:17.859Z,63.40
2022-10-15T04:08:48.337Z,63.40
2022-10-15T04:11:18.664Z,63.40
2022-10-15T04:13:52.240Z,63.30
2022-10-15T04:16:22.391Z,63.20
2022-10-15T04:18:52.583Z,63.20
2022-10-15T04:21:23.211Z,63.20
2022-10-15T04:23:53.379Z,63.20
2022-10-15T04:26:23.578Z,63.20
2022-10-15T04:28:53.932Z,63.20
2022-10-15T04:31:24.099Z,63.10
2022-10-15T04:33:54.214Z,63.10
2022-10-15T04:36:24.458Z,63.10
2022-10-15T04:38:55.693Z,63.10
2022-10-15T04:41:26.097Z,63.00
2022-10-15T04:43:57.221Z,63.10
2022-10-15T04:46:27.341Z,63.10
2022-10-15T04:48:59.484Z,63.00
2022-10-15T04:51:30.057Z,63.10
2022-10-15T04:54:00.225Z,63.00
2022-10-15T04:56:30.417Z,63.00
2022-10-15T04:59:00.537Z,63.10
2022-10-15T05:01:30.684Z,63.10
2022-10-15T05:04:00.846Z,63.10
2022-10-15T05:06:31.034Z,63.00
2022-10-15T05:09:03.332Z,63.00
2022-10-15T05:11:33.662Z,63.00
2022-10-15T05:14:03.847Z,63.00
2022-10-15T05:16:34.653Z,63.00
2022-10-15T05:19:10.029Z,63.00
2022-10-15T05:21:41.365Z,63.00
2022-10-15T05:24:12.718Z,63.00
2022-10-15T05:26:42.872Z,63.00
2022-10-15T05:29:13.072Z,63.00
2022-10-15T05:31:43.192Z,63.00
2022-10-15T05:34:15.778Z,62.90
2022-10-15T05:36:45.937Z,62.90
2022-10-15T05:39:16.418Z,63.70
2022-10-15T05:41:46.549Z,62.80
2022-10-15T05:44:16.925Z,62.70
2022-10-15T05:46:47.091Z,62.70
2022-10-15T05:49:17.321Z,62.70
2022-10-15T05:51:47.514Z,62.60
2022-10-15T05:54:17.823Z,62.60
2022-10-15T05:56:47.993Z,62.60
2022-10-15T05:59:18.047Z,62.60
2022-10-15T06:01:48.193Z,62.40
2022-10-15T06:04:18.796Z,62.50
2022-10-15T06:06:49.146Z,62.50
2022-10-15T06:09:19.347Z,62.30
2022-10-15T06:11:49.550Z,62.20
2022-10-15T06:14:19.674Z,62.30
2022-10-15T06:16:52.345Z,62.20
2022-10-15T06:19:23.581Z,62.20
2022-10-15T06:21:53.765Z,62.20
2022-10-15T06:24:24.005Z,62.00
2022-10-15T06:26:54.151Z,61.90
2022-10-15T06:29:24.324Z,61.80
2022-10-15T06:31:54.517Z,61.80
2022-10-15T06:34:24.648Z,61.80
2022-10-15T06:36:55.006Z,61.80
2022-10-15T06:39:25.199Z,61.90
2022-10-15T06:41:55.347Z,61.90
2022-10-15T06:44:26.684Z,62.70
2022-10-15T06:46:57.228Z,62.00
2022-10-15T06:49:27.982Z,61.90
2022-10-15T06:52:02.578Z,61.90
2022-10-15T06:54:34.144Z,62.00
2022-10-15T06:57:04.359Z,61.90
2022-10-15T06:59:37.150Z,61.90
2022-10-15T07:02:12.883Z,61.90
2022-10-15T07:04:43.137Z,62.10
2022-10-15T07:07:13.377Z,62.20
2022-10-15T07:09:43.833Z,62.20
2022-10-15T07:12:13.996Z,62.30
2022-10-15T07:14:44.355Z,62.30
2022-10-15T07:17:14.511Z,62.30
2022-10-15T07:19:45.580Z,62.40
2022-10-15T07:22:15.665Z,62.40
2022-10-15T07:24:45.838Z,62.40
2022-10-15T07:27:19.493Z,62.40
2022-10-15T07:29:50.098Z,62.50
2022-10-15T07:32:20.416Z,62.50
2022-10-15T07:34:50.771Z,62.50
2022-10-15T07:37:20.893Z,62.50
2022-10-15T07:39:51.190Z,62.50
2022-10-15T07:42:22.139Z,62.50
2022-10-15T07:44:52.238Z,62.50
2022-10-15T07:47:22.597Z,62.40
2022-10-15T07:49:52.868Z,62.30
2022-10-15T07:52:23.261Z,62.30
2022-10-15T07:54:53.608Z,62.00
2022-10-15T07:57:23.725Z,62.00
2022-10-15T07:59:53.855Z,62.30
2022-10-15T08:02:24.496Z,62.10
2022-10-15T08:04:55.238Z,62.20
2022-10-15T08:07:25.325Z,62.20
2022-10-15T08:09:55.471Z,62.30
2022-10-15T08:12:26.053Z,62.20
2022-10-15T08:14:56.353Z,62.30
2022-10-15T08:17:26.620Z,62.30
2022-10-15T08:19:57.235Z,62.30
2022-10-15T08:22:27.580Z,62.40
2022-10-15T08:24:57.770Z,62.20
2022-10-15T08:27:28.423Z,62.20
2022-10-15T08:29:58.563Z,62.40
2022-10-15T08:32:28.746Z,62.50
2022-10-15T08:34:58.830Z,62.40
2022-10-15T08:37:28.915Z,62.40
2022-10-15T08:39:59.071Z,62.60
2022-10-15T08:42:47.069Z,62.70
2022-10-15T08:45:27.815Z,62.50
2022-10-15T08:48:05.628Z,62.60
2022-10-15T08:51:00.152Z,62.80
2022-10-15T08:53:32.042Z,62.60
2022-10-15T08:56:08.312Z,62.80
2022-10-15T08:59:02.138Z,62.70
2022-10-15T09:01:50.548Z,62.80
2022-10-15T09:05:01.331Z,62.70
2022-10-15T09:08:00.517Z,62.70
2022-10-15T09:10:46.574Z,63.70
2022-10-15T09:13:41.950Z,62.80
2022-10-15T09:16:34.735Z,62.70
2022-10-15T09:19:08.571Z,62.80
2022-10-15T09:21:38.910Z,62.90
2022-10-15T09:24:12.844Z,62.80
2022-10-15T09:27:01.277Z,62.70
2022-10-15T09:29:51.122Z,62.80
2022-10-15T09:32:40.615Z,62.80
2022-10-15T09:35:22.475Z,62.80
2022-10-15T09:38:07.690Z,62.90
2022-10-15T09:40:40.511Z,63.00
2022-10-15T09:43:12.384Z,62.90
2022-10-15T09:45:42.531Z,62.90
2022-10-15T09:48:21.739Z,63.00
2022-10-15T09:51:20.844Z,62.80
2022-10-15T09:54:21.252Z,62.70
2022-10-15T09:56:58.170Z,62.80
2022-10-15T09:59:28.910Z,62.90
2022-10-15T10:02:19.473Z,62.80
2022-10-15T10:04:49.680Z,62.80
2022-10-15T10:07:35.615Z,63.00
2022-10-15T10:10:27.536Z,62.80
2022-10-15T10:13:01.302Z,62.70
2022-10-15T10:15:37.655Z,62.90
2022-10-15T10:18:08.351Z,63.00
2022-10-15T10:20:38.490Z,62.90
2022-10-15T10:23:25.761Z,62.80
2022-10-15T10:26:00.293Z,62.80
2022-10-15T10:28:45.268Z,62.90
2022-10-15T10:31:15.900Z,62.70
2022-10-15T10:33:46.138Z,62.80
2022-10-15T10:36:50.257Z,62.90
2022-10-15T10:39:34.295Z,62.70
2022-10-15T10:42:25.084Z,62.70
2022-10-15T10:44:56.695Z,62.90
2022-10-15T10:47:28.325Z,62.90
2022-10-15T10:50:00.522Z,63.00
2022-10-15T10:52:42.641Z,62.90
2022-10-15T10:55:26.860Z,62.70
2022-10-15T10:58:01.829Z,62.80
2022-10-15T11:00:46.853Z,63.00
2022-10-15T11:03:28.681Z,62.80
2022-10-15T11:06:33.505Z,62.90
2022-10-15T11:09:09.856Z,62.90
2022-10-15T11:11:59.971Z,63.00
2022-10-15T11:14:30.171Z,63.00
2022-10-15T11:17:10.147Z,63.00
2022-10-15T11:20:29.232Z,62.90
2022-10-15T11:23:19.287Z,63.00
2022-10-15T11:26:04.582Z,63.00
2022-10-15T11:28:38.527Z,63.00
2022-10-15T11:31:40.390Z,63.10
2022-10-15T11:35:00.393Z,63.10
2022-10-15T11:37:48.683Z,63.10
2022-10-15T11:41:08.444Z,63.20
2022-10-15T11:44:08.863Z,63.20
2022-10-15T11:46:57.086Z,63.30
2022-10-15T11:49:59.156Z,63.30
2022-10-15T11:52:49.237Z,63.30
2022-10-15T11:55:41.533Z,63.30
2022-10-15T11:58:25.632Z,63.30
2022-10-15T12:01:00.802Z,63.40
2022-10-15T12:03:33.682Z,63.40
2022-10-15T12:06:12.093Z,63.40
2022-10-15T12:08:44.666Z,63.40
2022-10-15T12:11:35.632Z,63.40
2022-10-15T12:14:31.288Z,63.40
2022-10-15T12:17:37.828Z,63.30
2022-10-15T12:20:28.238Z,63.40
2022-10-15T12:23:01.777Z,63.30
2022-10-15T12:25:37.843Z,63.40
2022-10-15T12:28:20.354Z,63.40
2022-10-15T12:31:03.079Z,63.40
2022-10-15T12:33:52.514Z,63.40
2022-10-15T12:36:30.771Z,63.40
2022-10-15T12:39:12.814Z,63.40
2022-10-15T12:41:52.791Z,63.40
2022-10-15T12:46:57.345Z,63.40
2022-10-15T12:49:34.047Z,63.40
2022-10-15T12:52:24.709Z,63.30
2022-10-15T12:54:59.027Z,63.40
2022-10-15T12:57:37.889Z,63.40
2022-10-15T13:00:27.961Z,63.40
2022-10-15T13:03:04.208Z,63.20
2022-10-15T13:05:35.315Z,63.40
2022-10-15T13:08:09.034Z,63.40
2022-10-15T13:10:48.834Z,63.40
2022-10-15T13:13:23.429Z,63.40
2022-10-15T13:15:59.435Z,63.40
2022-10-15T13:18:32.735Z,63.40
2022-10-15T13:21:03.614Z,63.40
2022-10-15T13:23:36.203Z,63.40
2022-10-15T13:26:31.686Z,63.40
2022-10-15T13:29:02.008Z,63.30
2022-10-15T13:31:34.687Z,63.50
2022-10-15T13:34:38.773Z,63.40
2022-10-15T13:37:08.940Z,63.30
2022-10-15T13:39:43.741Z,63.50
2022-10-15T13:42:19.619Z,63.50
2022-10-15T13:45:03.571Z,63.50
2022-10-15T13:47:38.302Z,63.40
2022-10-15T13:50:21.241Z,63.50
2022-10-15T13:52:56.501Z,63.40
2022-10-15T13:58:24.874Z,63.40
2022-10-15T14:01:05.884Z,63.40
2022-10-15T14:03:37.970Z,63.40
2022-10-15T14:06:23.320Z,63.40
2022-10-15T14:08:56.283Z,63.30
2022-10-15T14:11:27.554Z,63.40
2022-10-15T14:14:00.852Z,63.40
2022-10-15T14:16:41.462Z,63.40
2022-10-15T14:19:14.480Z,63.40
2022-10-15T14:21:53.997Z,63.40
2022-10-15T14:24:38.671Z,63.40
2022-10-15T14:27:22.740Z,63.40
2022-10-15T14:29:58.419Z,63.40
2022-10-15T14:32:34.384Z,63.50
2022-10-15T14:35:10.760Z,63.40
2022-10-15T14:37:44.914Z,63.50
2022-10-15T14:40:21.147Z,63.40
2022-10-15T14:43:17.135Z,63.50
2022-10-15T14:46:08.936Z,63.50
2022-10-15T14:48:42.294Z,63.50
2022-10-15T14:51:25.543Z,63.60
2022-10-15T14:53:56.589Z,63.50
2022-10-15T14:56:34.576Z,63.40
2022-10-15T14:59:05.941Z,63.40
2022-10-15T15:01:37.894Z,63.50
2022-10-15T15:04:08.109Z,63.40
2022-10-15T15:06:38.269Z,63.30
2022-10-15T15:09:08.744Z,63.40
2022-10-15T15:11:39.553Z,63.30
2022-10-15T15:14:30.544Z,63.20
2022-10-15T15:17:00.926Z,63.10
2022-10-15T15:19:31.092Z,63.20
2022-10-15T15:22:01.597Z,63.10
2022-10-15T15:24:31.735Z,63.10
2022-10-15T15:27:01.856Z,63.10
2022-10-15T15:29:31.987Z,63.10
2022-10-15T15:32:02.166Z,63.10
2022-10-15T15:34:32.310Z,63.00
2022-10-15T15:37:04.346Z,63.00
2022-10-15T15:39:34.511Z,62.90
2022-10-15T15:42:04.710Z,62.90
2022-10-15T15:44:34.837Z,62.90
2022-10-15T15:47:05.125Z,62.90
2022-10-15T15:49:35.283Z,62.90
2022-10-15T15:52:06.460Z,63.00
2022-10-15T15:54:36.688Z,62.80
2022-10-15T15:57:07.013Z,62.90
2022-10-15T15:59:37.504Z,62.80
2022-10-15T16:02:07.854Z,62.90
2022-10-15T16:04:38.024Z,62.90
2022-10-15T16:07:10.394Z,62.80
2022-10-15T16:09:43.464Z,62.80
2022-10-15T16:12:14.042Z,62.80
2022-10-15T16:14:44.185Z,62.80
2022-10-15T16:17:14.598Z,62.80
2022-10-15T16:19:44.896Z,62.80
2022-10-15T16:22:17.206Z,62.80
2022-10-15T16:24:47.368Z,62.80
2022-10-15T16:27:17.506Z,62.80
2022-10-15T16:29:47.570Z,62.80
2022-10-15T16:32:17.754Z,62.80
2022-10-15T16:34:47.903Z,62.80
2022-10-15T16:37:18.046Z,62.80
2022-10-15T16:39:48.192Z,62.80
2022-10-15T16:44:48.152Z,62.80
2022-10-15T16:47:18.375Z,62.80
2022-10-15T16:49:48.644Z,62.80
2022-10-15T16:52:18.806Z,62.80
2022-10-15T16:54:49.170Z,62.80
2022-10-15T16:57:19.493Z,62.80
2022-10-15T16:59:49.665Z,62.80
2022-10-15T17:02:19.753Z,62.80
2022-10-15T17:04:49.945Z,62.80
2022-10-15T17:07:20.431Z,62.80
2022-10-15T17:09:50.889Z,62.80
2022-10-15T17:12:21.134Z,63.60
2022-10-15T17:14:54.231Z,63.60
2022-10-15T17:17:24.459Z,62.80
2022-10-15T17:19:54.747Z,62.90
2022-10-15T17:22:25.067Z,62.80
2022-10-15T17:24:55.484Z,62.90
2022-10-15T17:27:25.649Z,62.90
2022-10-15T17:29:55.818Z,62.90
2022-10-15T17:32:27.215Z,62.90
2022-10-15T17:35:00.134Z,62.90
2022-10-15T17:40:05.350Z,63.00
2022-10-15T17:42:35.645Z,62.90
2022-10-15T17:45:06.048Z,62.90
2022-10-15T17:47:36.216Z,62.90
2022-10-15T17:50:07.846Z,62.90
2022-10-15T17:52:38.003Z,62.90
2022-10-15T17:55:08.600Z,62.90
2022-10-15T17:57:38.823Z,63.00
2022-10-15T18:00:10.078Z,63.70
2022-10-15T18:02:40.260Z,62.90
2022-10-15T18:05:10.646Z,62.90
2022-10-15T18:07:40.830Z,63.00
2022-10-15T18:10:13.176Z,63.00
2022-10-15T18:12:43.422Z,63.10
2022-10-15T18:15:13.827Z,63.00
2022-10-15T18:17:43.988Z,63.00
2022-10-15T18:20:15.909Z,63.00
2022-10-15T18:22:46.082Z,63.00
2022-10-15T18:25:16.294Z,63.00
2022-10-15T18:27:46.782Z,63.10
2022-10-15T18:30:17.142Z,63.10
2022-10-15T18:32:47.303Z,63.10
2022-10-15T18:35:17.409Z,63.10
2022-10-15T18:37:47.640Z,63.10
2022-10-15T18:40:17.823Z,63.20
2022-10-15T18:42:48.057Z,63.10
2022-10-15T18:45:18.298Z,63.10
2022-10-15T18:47:48.453Z,63.10
2022-10-15T18:50:18.579Z,63.10
2022-10-15T18:52:48.701Z,63.10
2022-10-15T18:55:19.081Z,63.90
2022-10-15T18:57:49.360Z,63.20
2022-10-15T19:00:19.587Z,63.20
2022-10-15T19:02:49.767Z,63.20
2022-10-15T19:05:20.025Z,63.20
2022-10-15T19:07:51.567Z,63.10
2022-10-15T19:10:21.677Z,63.20
2022-10-15T19:12:52.341Z,63.20
2022-10-15T19:15:22.458Z,63.20
2022-10-15T19:17:52.610Z,63.30
2022-10-15T19:20:22.825Z,63.40
2022-10-15T19:22:53.089Z,63.40
2022-10-15T19:25:23.245Z,63.50
2022-10-15T19:27:53.388Z,63.50
2022-10-15T19:30:23.494Z,63.50
2022-10-15T19:32:53.597Z,63.60
2022-10-15T19:35:23.713Z,63.60
2022-10-15T19:37:53.894Z,63.60
2022-10-15T19:40:24.083Z,63.60
2022-10-15T19:42:54.209Z,63.60
2022-10-15T19:45:24.319Z,63.70
2022-10-15T19:47:55.613Z,63.60
2022-10-15T19:50:27.659Z,63.70
2022-10-15T19:52:57.884Z,63.70
2022-10-15T19:55:28.089Z,63.70
2022-10-15T19:57:58.611Z,63.60
2022-10-15T20:00:29.010Z,63.60
2022-10-15T20:02:59.293Z,63.60
2022-10-15T20:05:29.451Z,63.60
2022-10-15T20:07:59.715Z,63.60
2022-10-15T20:10:29.947Z,63.60
2022-10-15T20:13:00.342Z,63.60
2022-10-15T20:15:30.495Z,63.50
2022-10-15T20:18:00.663Z,63.60
2022-10-15T20:20:30.850Z,63.60
2022-10-15T20:23:01.016Z,63.60
2022-10-15T20:25:31.370Z,63.50
2022-10-15T20:28:01.788Z,63.50
2022-10-15T20:30:31.945Z,63.50
2022-10-15T20:33:02.609Z,63.50
2022-10-15T20:35:36.230Z,63.50
2022-10-15T20:38:08.103Z,63.50
2022-10-15T20:40:41.487Z,63.60
2022-10-15T20:43:12.076Z,63.60
2022-10-15T20:45:46.673Z,63.50
2022-10-15T20:48:23.944Z,63.60
2022-10-15T20:50:56.281Z,63.60
2022-10-15T20:53:27.746Z,63.50
2022-10-15T20:55:57.908Z,63.60
2022-10-15T20:58:28.275Z,63.50
2022-10-15T21:00:58.709Z,63.60
2022-10-15T21:03:31.475Z,63.50
2022-10-15T21:06:02.526Z,63.50
2022-10-15T21:08:32.752Z,63.50
2022-10-15T21:11:07.748Z,63.50
2022-10-15T21:13:38.539Z,63.60
2022-10-15T21:16:10.180Z,63.60
2022-10-15T21:18:40.715Z,63.60
2022-10-15T21:21:13.307Z,63.60
2022-10-15T21:23:44.853Z,63.60
2022-10-15T21:26:17.889Z,64.40
2022-10-15T21:28:48.333Z,63.70
2022-10-15T21:31:19.984Z,63.70
2022-10-15T21:33:50.213Z,63.70
2022-10-15T21:36:26.763Z,63.70
2022-10-15T21:39:05.434Z,63.60
2022-10-15T21:41:37.918Z,63.70
2022-10-15T21:44:09.734Z,63.70
2022-10-15T21:46:42.883Z,63.80
2022-10-15T21:49:13.421Z,63.90
2022-10-15T21:51:43.981Z,63.80
2022-10-15T21:54:14.657Z,63.60
2022-10-15T21:56:44.784Z,63.60
2022-10-15T21:59:14.991Z,63.70
2022-10-15T22:01:47.188Z,64.00
2022-10-15T22:04:17.439Z,64.00
2022-10-15T22:06:47.605Z,63.80
2022-10-15T22:09:17.818Z,64.20
2022-10-15T22:11:47.951Z,63.90
2022-10-15T22:14:18.072Z,64.20
2022-10-15T22:16:48.776Z,64.20
2022-10-15T22:19:20.003Z,64.20
2022-10-15T22:21:51.084Z,64.40
2022-10-15T22:24:22.490Z,64.20
2022-10-15T22:26:54.658Z,64.60
2022-10-15T22:29:31.664Z,64.40
2022-10-15T22:32:05.396Z,64.90
2022-10-15T22:34:35.652Z,64.40
2022-10-15T22:37:05.796Z,64.70
2022-10-15T22:39:35.932Z,64.70
2022-10-15T22:42:07.521Z,64.60
2022-10-15T22:44:37.792Z,65.00
2022-10-15T22:47:08.011Z,65.40
2022-10-15T22:49:38.112Z,65.00
2022-10-15T22:52:08.343Z,64.80
2022-10-15T22:54:38.511Z,65.20
2022-10-15T22:57:08.668Z,65.00
2022-10-15T22:59:39.403Z,65.10
2022-10-15T23:02:09.824Z,65.10
2022-10-15T23:04:40.043Z,65.00
2022-10-15T23:07:10.268Z,65.10
2022-10-15T23:09:40.420Z,64.90
2022-10-15T23:12:10.542Z,65.20
2022-10-15T23:14:40.714Z,65.20
2022-10-15T23:17:10.986Z,65.50
2022-10-15T23:19:41.113Z,65.50
2022-10-15T23:22:11.815Z,65.60
2022-10-15T23:24:42.023Z,65.60
2022-10-15T23:27:12.401Z,65.60
2022-10-15T23:29:42.549Z,65.70
2022-10-15T23:32:13.135Z,65.70
2022-10-15T23:34:43.417Z,65.70
2022-10-15T23:37:13.593Z,65.50
2022-10-15T23:39:43.713Z,65.50
2022-10-15T23:42:13.814Z,65.50
2022-10-15T23:44:43.881Z,65.40
2022-10-15T23:47:14.074Z,65.50
2022-10-15T23:49:44.189Z,65.30
2022-10-15T23:52:14.305Z,65.30
2022-10-15T23:54:44.552Z,65.20
2022-10-15T23:57:14.758Z,65.20
2022-10-15T23:59:44.912Z,65.20
